Time;durP1;ratioP1;P1;durP2;ratioP2;P2;SDS_P1;SDS_P2;PMS_P1;PMS_P2;Temp;Humidity;BMP_temperature;BMP_pressure;BME280_temperature;BME280_humidity;BME280_pressure;Samples;Min_cycle;Max_cycle;Signal;HPM_P1;HPM_P2
2021/10/01 00:02:24;;;;;;;3.83;1.60;;;11.50;78.60;;;;;;5072179;28;20184;-86
2021/10/01 00:04:50;;;;;;;4.37;2.07;;;11.40;79.20;;;;;;5072073;28;20266;-87
2021/10/01 00:07:17;;;;;;;4.20;1.73;;;11.40;79.80;;;;;;5073300;28;20582;-87
2021/10/01 00:09:43;;;;;;;9.60;2.07;;;11.40;79.10;;;;;;5071935;28;20297;-87
2021/10/01 00:12:09;;;;;;;4.40;1.50;;;11.50;79.10;;;;;;5071957;28;20258;-87
2021/10/01 00:14:36;;;;;;;4.70;1.60;;;11.40;79.10;;;;;;5071990;28;20185;-87
2021/10/01 00:17:03;;;;;;;8.73;1.77;;;11.40;79.70;;;;;;5071919;28;20179;-87
2021/10/01 00:19:33;;;;;;;5.47;1.60;;;11.50;79.20;;;;;;5073116;28;20572;-87
2021/10/01 00:21:59;;;;;;;7.33;2.20;;;11.50;78.80;;;;;;5071913;28;20264;-87
2021/10/01 00:24:25;;;;;;;2.23;1.33;;;11.50;79.20;;;;;;5071973;28;20596;-87
2021/10/01 00:26:50;;;;;;;4.97;2.10;;;11.50;78.70;;;;;;5073110;28;20572;-87
2021/10/01 00:29:16;;;;;;;6.80;2.00;;;11.60;78.30;;;;;;5071692;28;20215;-87
2021/10/01 00:31:42;;;;;;;5.17;1.77;;;11.60;78.30;;;;;;5071832;28;20265;-87
2021/10/01 00:34:08;;;;;;;8.17;2.57;;;11.70;77.50;;;;;;5071961;28;20710;-87
2021/10/01 00:36:34;;;;;;;4.50;1.83;;;11.70;77.70;;;;;;5073274;28;20255;-87
2021/10/01 00:39:00;;;;;;;5.80;1.83;;;11.70;77.40;;;;;;5071668;28;20253;-87
2021/10/01 00:41:27;;;;;;;4.47;2.10;;;11.80;77.60;;;;;;5071995;28;20188;-87
2021/10/01 00:43:53;;;;;;;4.23;1.37;;;11.70;77.70;;;;;;5072922;28;20182;-87
2021/10/01 00:46:18;;;;;;;5.87;1.70;;;11.80;77.50;;;;;;5071704;28;20258;-87
2021/10/01 00:48:44;;;;;;;6.60;1.80;;;11.80;77.30;;;;;;5071566;28;20261;-87
2021/10/01 00:51:10;;;;;;;6.00;2.00;;;11.80;77.00;;;;;;5071629;28;20182;-87
2021/10/01 00:53:36;;;;;;;3.90;1.47;;;11.80;77.30;;;;;;5072802;28;20536;-87
2021/10/01 00:56:02;;;;;;;4.03;1.50;;;11.80;76.60;;;;;;5072765;28;20214;-87
2021/10/01 00:58:28;;;;;;;3.70;1.57;;;11.90;76.70;;;;;;5071272;28;20222;-86
2021/10/01 01:01:09;;;;;;;4.33;1.67;;;12.00;76.60;;;;;;5072187;28;20225;-87
2021/10/01 01:03:44;;;;;;;4.07;1.77;;;12.00;76.50;;;;;;5076787;28;20195;-87
2021/10/01 01:06:42;;;;;;;4.33;1.53;;;12.00;76.50;;;;;;5076413;28;20204;-86
2021/10/01 01:09:20;;;;;;;5.03;1.70;;;11.90;76.60;;;;;;5075021;28;20302;-87
2021/10/01 01:11:57;;;;;;;7.20;1.60;;;12.00;76.80;;;;;;5075087;28;20175;-86
2021/10/01 01:14:31;;;;;;;10.20;2.50;;;12.00;76.30;;;;;;5075196;28;20174;-87
2021/10/01 01:17:00;;;;;;;5.27;1.80;;;12.00;76.60;;;;;;5075123;28;20174;-87
2021/10/01 01:20:03;;;;;;;4.33;1.30;;;12.00;76.60;;;;;;5076177;28;20307;-87
2021/10/01 01:22:56;;;;;;;3.30;1.10;;;12.00;76.00;;;;;;5076243;28;20151;-87
2021/10/01 01:25:28;;;;;;;6.63;1.40;;;12.20;75.00;;;;;;5074903;28;20196;-87
2021/10/01 01:28:14;;;;;;;3.87;1.57;;;12.20;74.90;;;;;;5075017;28;20203;-87
2021/10/01 01:30:46;;;;;;;2.90;1.47;;;12.10;75.30;;;;;;5076025;28;20155;-86
2021/10/01 01:33:22;;;;;;;4.57;1.63;;;12.10;75.30;;;;;;5074749;28;20168;-86
2021/10/01 01:35:52;;;;;;;3.33;1.40;;;12.00;76.20;;;;;;5074679;28;20262;-86
2021/10/01 01:38:28;;;;;;;2.17;1.50;;;12.10;75.60;;;;;;5074600;28;20199;-87
2021/10/01 01:40:58;;;;;;;4.00;1.63;;;12.20;75.30;;;;;;5075920;28;20162;-87
2021/10/01 01:43:27;;;;;;;2.83;1.30;;;12.10;75.10;;;;;;5074539;28;20537;-87
2021/10/01 01:45:54;;;;;;;5.83;1.87;;;12.20;74.90;;;;;;5074484;28;20171;-87
2021/10/01 01:48:20;;;;;;;4.83;2.13;;;12.10;74.90;;;;;;5074395;28;20274;-87
2021/10/01 01:50:46;;;;;;;3.77;1.70;;;12.10;75.40;;;;;;5074435;28;20175;-87
2021/10/01 01:53:15;;;;;;;7.87;2.40;;;12.10;75.20;;;;;;5074280;28;20167;-87
2021/10/01 01:55:41;;;;;;;9.03;2.00;;;12.10;75.30;;;;;;5075597;28;20254;-87
2021/10/01 01:58:08;;;;;;;8.97;1.73;;;12.10;75.20;;;;;;5075701;28;20218;-87
2021/10/01 02:00:35;;;;;;;3.97;1.83;;;12.20;74.70;;;;;;5074308;28;20172;-87
2021/10/01 02:03:02;;;;;;;2.53;1.30;;;12.20;74.80;;;;;;5074772;28;20171;-87
2021/10/01 02:05:28;;;;;;;4.93;1.73;;;12.20;74.40;;;;;;5074148;28;20700;-87
2021/10/01 02:07:56;;;;;;;3.87;1.50;;;12.20;74.40;;;;;;5074047;28;20329;-87
2021/10/01 02:10:23;;;;;;;6.20;1.70;;;12.20;74.70;;;;;;5075257;28;20234;-87
2021/10/01 02:12:52;;;;;;;9.67;1.77;;;12.20;74.90;;;;;;5073272;28;20202;-87
2021/10/01 02:15:19;;;;;;;8.83;2.00;;;12.20;74.70;;;;;;5075297;28;20536;-87
2021/10/01 02:17:48;;;;;;;5.60;1.27;;;12.20;74.90;;;;;;5073855;28;20193;-86
2021/10/01 02:20:15;;;;;;;6.40;1.67;;;12.20;74.70;;;;;;5074246;28;20700;-87
2021/10/01 02:22:42;;;;;;;4.83;2.67;;;12.20;74.90;;;;;;5073933;28;20218;-87
2021/10/01 02:26:33;;;;;;;5.97;1.73;;;12.20;75.00;;;;;;5073813;28;20219;-87
2021/10/01 02:27:58;;;;;;;7.13;1.67;;;12.10;75.30;;;;;;5074762;28;20199;-87
2021/10/01 02:30:25;;;;;;;4.97;1.60;;;12.20;74.80;;;;;;5075198;28;20270;-87
2021/10/01 02:33:04;;;;;;;6.87;1.37;;;12.20;74.90;;;;;;5073614;28;20635;-87
2021/10/01 02:35:30;;;;;;;3.43;1.63;;;12.20;75.20;;;;;;5073644;28;20530;-87
2021/10/01 02:37:56;;;;;;;2.20;1.33;;;12.10;75.30;;;;;;5075007;28;20210;-87
2021/10/01 02:40:22;;;;;;;5.17;1.67;;;12.10;75.50;;;;;;5073563;28;20183;-87
2021/10/01 02:42:48;;;;;;;6.57;1.47;;;12.10;74.80;;;;;;5073386;28;20673;-86
2021/10/01 02:45:14;;;;;;;5.80;1.90;;;12.10;74.90;;;;;;5074613;28;20175;-87
2021/10/01 02:47:40;;;;;;;2.97;1.43;;;12.20;75.30;;;;;;5074722;28;20260;-87
2021/10/01 02:50:16;;;;;;;5.33;1.77;;;12.20;74.80;;;;;;5073236;28;20726;-87
2021/10/01 02:53:01;;;;;;;5.30;1.47;;;12.20;74.90;;;;;;5074473;28;20178;-87
2021/10/01 02:55:42;;;;;;;3.63;2.10;;;12.10;75.20;;;;;;5073186;28;20163;-87
2021/10/01 02:58:14;;;;;;;5.43;1.53;;;12.20;75.00;;;;;;5072938;28;20191;-87
2021/10/01 03:00:40;;;;;;;3.40;1.47;;;12.10;74.60;;;;;;5073119;28;20237;-87
2021/10/01 03:03:16;;;;;;;7.70;1.50;;;12.20;75.00;;;;;;5072973;28;20639;-87
2021/10/01 03:05:43;;;;;;;5.63;1.90;;;12.10;74.80;;;;;;5072983;28;20631;-87
2021/10/01 03:08:11;;;;;;;3.83;1.53;;;12.10;75.10;;;;;;5072773;28;20198;-87
2021/10/01 03:10:38;;;;;;;5.93;2.03;;;12.00;75.30;;;;;;5072873;28;20196;-87
2021/10/01 03:13:05;;;;;;;4.53;1.90;;;12.00;75.10;;;;;;5074046;28;20171;-87
2021/10/01 03:15:31;;;;;;;6.43;1.77;;;12.00;75.10;;;;;;5072950;28;20682;-87
2021/10/01 03:17:59;;;;;;;7.27;1.70;;;12.00;75.40;;;;;;5072632;28;20195;-87
2021/10/01 03:20:25;;;;;;;4.23;1.73;;;12.00;75.20;;;;;;5072737;28;20178;-87
2021/10/01 03:22:51;;;;;;;7.60;2.00;;;12.00;75.10;;;;;;5072649;28;20171;-87
2021/10/01 03:25:18;;;;;;;11.13;2.13;;;12.00;75.20;;;;;;5072970;28;20175;-87
2021/10/01 03:27:43;;;;;;;5.20;1.27;;;11.90;75.50;;;;;;5073734;28;20191;-87
2021/10/01 03:30:09;;;;;;;5.27;1.57;;;11.90;75.80;;;;;;5072377;28;20195;-87
2021/10/01 03:32:36;;;;;;;9.13;2.03;;;11.90;75.30;;;;;;5072495;28;20179;-86
2021/10/01 03:35:05;;;;;;;2.30;1.20;;;11.90;75.00;;;;;;5073367;28;20509;-87
2021/10/01 03:37:31;;;;;;;7.70;1.87;;;11.90;75.40;;;;;;5072425;28;20174;-87
2021/10/01 03:40:03;;;;;;;3.30;1.40;;;11.90;75.30;;;;;;5073873;28;20168;-87
2021/10/01 03:42:29;;;;;;;3.40;1.60;;;11.90;75.40;;;;;;5073803;28;20175;-87
2021/10/01 03:44:54;;;;;;;5.27;1.77;;;11.90;75.40;;;;;;5073554;28;20174;-87
2021/10/01 03:47:21;;;;;;;6.70;1.60;;;11.80;76.10;;;;;;5072274;28;20187;-87
2021/10/01 03:49:46;;;;;;;7.20;1.37;;;11.80;76.30;;;;;;5073381;28;20243;-87
2021/10/01 03:52:13;;;;;;;7.70;1.63;;;11.70;76.30;;;;;;5072137;28;20210;-87
2021/10/01 03:54:42;;;;;;;8.10;1.83;;;11.80;76.00;;;;;;5073482;28;20175;-87
2021/10/01 03:57:07;;;;;;;14.27;2.10;;;11.70;76.30;;;;;;5072105;28;20190;-86
2021/10/01 03:59:33;;;;;;;5.80;1.60;;;11.70;76.40;;;;;;5073241;28;20214;-87
2021/10/01 04:01:58;;;;;;;8.07;1.70;;;11.70;75.80;;;;;;5072052;28;20542;-87
2021/10/01 04:04:24;;;;;;;3.93;1.67;;;11.80;76.50;;;;;;5073278;28;20544;-87
2021/10/01 04:06:50;;;;;;;8.10;1.53;;;11.70;76.60;;;;;;5072220;28;20562;-87
2021/10/01 04:09:16;;;;;;;8.37;1.70;;;11.70;76.30;;;;;;5071938;28;20360;-87
2021/10/01 04:11:42;;;;;;;6.33;1.73;;;11.70;76.90;;;;;;5071985;28;20690;-86
2021/10/01 04:14:08;;;;;;;2.00;1.13;;;11.70;76.30;;;;;;5073219;28;20187;-87
2021/10/01 04:16:34;;;;;;;3.70;1.50;;;11.80;75.80;;;;;;5072044;28;20657;-87
2021/10/01 04:18:59;;;;;;;10.37;1.97;;;11.80;75.70;;;;;;5073084;28;20269;-87
2021/10/01 04:21:25;;;;;;;5.43;2.03;;;11.80;75.90;;;;;;5071935;28;20182;-87
2021/10/01 04:23:51;;;;;;;4.83;1.60;;;11.70;76.50;;;;;;5073117;28;20659;-87
2021/10/01 04:26:17;;;;;;;3.73;1.20;;;11.70;76.80;;;;;;5071969;28;20183;-87
2021/10/01 04:28:46;;;;;;;4.60;1.80;;;11.60;77.10;;;;;;5071723;28;20239;-87
2021/10/01 04:31:12;;;;;;;3.30;1.57;;;11.60;76.90;;;;;;5071856;28;20179;-87
2021/10/01 04:33:42;;;;;;;3.57;1.23;;;11.70;75.90;;;;;;5072131;28;20179;-87
2021/10/01 04:36:09;;;;;;;5.20;1.80;;;11.70;76.10;;;;;;5074207;28;20643;-87
2021/10/01 04:38:35;;;;;;;3.00;1.57;;;11.70;76.40;;;;;;5075828;28;20218;-87
2021/10/01 04:41:01;;;;;;;5.27;1.30;;;11.60;76.70;;;;;;5076789;28;20171;-87
2021/10/01 04:43:27;;;;;;;2.70;1.40;;;11.50;77.30;;;;;;5076946;28;20182;-87
2021/10/01 04:45:53;;;;;;;6.63;1.63;;;11.50;77.70;;;;;;5077113;28;20214;-87
2021/10/01 04:48:18;;;;;;;4.53;1.80;;;11.40;77.80;;;;;;5076650;28;20194;-87
2021/10/01 04:50:44;;;;;;;6.17;2.00;;;11.50;76.90;;;;;;5077101;28;20170;-87
2021/10/01 04:53:10;;;;;;;4.00;1.60;;;11.50;77.30;;;;;;5075698;28;20201;-87
2021/10/01 04:55:36;;;;;;;6.50;1.57;;;11.40;77.40;;;;;;5075527;28;20167;-87
2021/10/01 04:58:03;;;;;;;6.33;1.80;;;11.50;77.40;;;;;;5075374;28;20678;-87
2021/10/01 05:00:29;;;;;;;5.67;1.40;;;11.40;77.50;;;;;;5075495;28;20172;-87
2021/10/01 05:02:54;;;;;;;4.67;1.60;;;11.40;77.60;;;;;;5075463;28;20674;-87
2021/10/01 05:05:20;;;;;;;5.93;1.60;;;11.30;77.90;;;;;;5075242;28;20175;-87
2021/10/01 05:07:46;;;;;;;3.67;1.43;;;11.30;77.80;;;;;;5076488;28;20191;-87
2021/10/01 05:10:12;;;;;;;3.27;2.07;;;11.30;78.10;;;;;;5075169;28;20206;-87
2021/10/01 05:12:39;;;;;;;6.50;1.60;;;11.30;77.90;;;;;;5076511;28;20639;-87
2021/10/01 05:15:06;;;;;;;7.37;1.67;;;11.30;78.10;;;;;;5075168;28;20175;-87
2021/10/01 05:17:34;;;;;;;8.17;1.80;;;11.20;78.20;;;;;;5074988;28;20175;-87
2021/10/01 05:20:00;;;;;;;6.07;1.80;;;11.20;78.10;;;;;;5076294;28;20195;-87
2021/10/01 05:22:26;;;;;;;4.73;1.53;;;11.10;78.50;;;;;;5076196;28;20182;-87
2021/10/01 05:24:51;;;;;;;4.40;1.77;;;11.10;78.50;;;;;;5075010;28;20632;-87
2021/10/01 05:27:17;;;;;;;5.57;1.70;;;11.10;78.70;;;;;;5074840;28;20723;-87
2021/10/01 05:29:43;;;;;;;3.77;1.63;;;11.00;78.90;;;;;;5076010;28;20199;-87
2021/10/01 05:32:08;;;;;;;4.40;1.53;;;11.00;79.00;;;;;;5076311;28;20195;-87
2021/10/01 05:34:34;;;;;;;3.37;1.47;;;11.00;78.70;;;;;;5074797;28;20663;-87
2021/10/01 05:37:01;;;;;;;4.97;1.63;;;11.00;78.80;;;;;;5075958;28;20178;-87
2021/10/01 05:39:27;;;;;;;4.63;1.63;;;11.00;78.80;;;;;;5075903;28;20194;-87
2021/10/01 05:41:52;;;;;;;6.40;1.97;;;11.00;78.60;;;;;;5074606;28;20175;-87
2021/10/01 05:44:18;;;;;;;4.20;1.80;;;11.00;78.80;;;;;;5074720;28;20651;-87
2021/10/01 05:46:45;;;;;;;8.47;1.70;;;11.00;78.40;;;;;;5074812;28;20658;-87
2021/10/01 05:49:20;;;;;;;4.03;1.70;;;11.00;78.20;;;;;;5074565;28;20191;-87
2021/10/01 05:51:49;;;;;;;4.30;1.70;;;11.10;78.40;;;;;;5075778;28;20171;-87
2021/10/01 05:54:21;;;;;;;6.07;1.57;;;11.10;78.40;;;;;;5075701;28;20160;-87
2021/10/01 05:56:51;;;;;;;6.93;1.73;;;11.10;78.10;;;;;;5074392;28;20171;-87
2021/10/01 05:59:18;;;;;;;4.10;1.50;;;11.10;78.30;;;;;;5074152;28;20211;-87
2021/10/01 06:01:44;;;;;;;3.23;1.60;;;11.10;77.70;;;;;;5074290;28;20175;-87
2021/10/01 06:04:10;;;;;;;10.57;2.37;;;11.20;78.00;;;;;;5074371;28;20258;-87
2021/10/01 06:06:36;;;;;;;7.10;1.90;;;11.20;78.00;;;;;;5074268;28;20214;-87
2021/10/01 06:09:03;;;;;;;6.50;1.70;;;11.20;78.20;;;;;;5074125;28;20632;-87
2021/10/01 06:11:29;;;;;;;9.30;2.00;;;11.20;77.70;;;;;;5074146;28;20174;-87
2021/10/01 06:13:55;;;;;;;3.80;1.53;;;11.20;77.70;;;;;;5074081;28;20172;-87
2021/10/01 06:16:21;;;;;;;2.17;1.47;;;11.20;77.50;;;;;;5074082;28;20259;-87
2021/10/01 06:18:46;;;;;;;3.57;1.20;;;11.20;77.70;;;;;;5073974;28;20195;-87
2021/10/01 06:21:12;;;;;;;5.80;2.10;;;11.20;77.40;;;;;;5075176;28;20167;-87
2021/10/01 06:23:37;;;;;;;7.70;1.60;;;11.20;77.00;;;;;;5074738;28;20256;-87
2021/10/01 06:26:04;;;;;;;6.27;1.60;;;11.30;77.10;;;;;;5073759;28;20179;-87
2021/10/01 06:28:31;;;;;;;7.03;1.70;;;11.30;77.30;;;;;;5073634;28;20199;-87
2021/10/01 06:30:58;;;;;;;5.33;1.70;;;11.20;77.90;;;;;;5073759;28;20175;-87
2021/10/01 06:33:28;;;;;;;6.20;1.50;;;11.20;77.60;;;;;;5073711;28;20587;-87
2021/10/01 06:35:54;;;;;;;4.80;1.60;;;11.30;77.70;;;;;;5074863;28;20171;-87
2021/10/01 06:38:20;;;;;;;6.80;1.47;;;11.30;77.20;;;;;;5074824;28;20187;-87
2021/10/01 06:40:45;;;;;;;4.77;1.60;;;11.30;77.30;;;;;;5075031;28;20194;-87
2021/10/01 06:43:14;;;;;;;7.00;1.50;;;11.30;77.00;;;;;;5074707;28;20182;-87
2021/10/01 06:45:40;;;;;;;6.73;1.77;;;11.30;77.50;;;;;;5073457;28;20176;-86
2021/10/01 07:23:24;;;;;;;3.83;1.67;;;11.50;76.70;;;;;;5074430;28;20158;-86
2021/10/01 08:20:21;;;;;;;6.27;2.00;;;12.10;76.60;;;;;;5073732;28;20642;-87
2021/10/01 08:22:47;;;;;;;4.67;1.87;;;12.20;76.70;;;;;;5072072;28;20175;-87
2021/10/01 08:25:13;;;;;;;2.93;1.57;;;12.30;76.10;;;;;;5071896;28;20172;-87
2021/10/01 08:27:38;;;;;;;6.30;1.80;;;12.30;76.30;;;;;;5073041;28;20171;-86
2021/10/01 08:30:08;;;;;;;5.43;1.67;;;12.50;75.70;;;;;;5073027;28;20198;-87
2021/10/01 08:32:34;;;;;;;3.70;1.23;;;12.50;76.60;;;;;;5071788;28;20258;-87
2021/10/01 08:35:00;;;;;;;3.57;1.67;;;12.50;75.40;;;;;;5073233;28;20167;-87
2021/10/01 08:37:25;;;;;;;4.40;1.93;;;12.60;76.10;;;;;;5072082;28;20176;-88
2021/10/01 08:39:51;;;;;;;4.80;1.60;;;12.70;75.00;;;;;;5073229;28;20538;-88
2021/10/01 08:42:17;;;;;;;3.70;1.40;;;12.70;74.50;;;;;;5071735;28;20182;-88
2021/10/01 08:44:43;;;;;;;8.10;1.60;;;12.80;74.80;;;;;;5072958;28;20178;-88
2021/10/01 08:47:10;;;;;;;7.10;1.47;;;12.90;74.90;;;;;;5073001;28;20171;-88
2021/10/01 08:49:40;;;;;;;4.20;1.93;;;13.00;74.40;;;;;;5071811;28;20207;-88
2021/10/01 08:52:08;;;;;;;3.87;1.63;;;13.10;74.90;;;;;;5073023;28;20191;-88
2021/10/01 08:54:34;;;;;;;3.67;1.50;;;13.20;74.30;;;;;;5071722;28;20639;-88
2021/10/01 08:57:00;;;;;;;4.17;1.47;;;13.30;73.70;;;;;;5071658;28;20646;-88
2021/10/01 08:59:26;;;;;;;7.73;2.57;;;13.30;73.10;;;;;;5072635;28;20242;-87
2021/10/01 09:01:52;;;;;;;4.47;1.73;;;13.50;73.10;;;;;;5071837;28;20179;-88
2021/10/01 09:04:18;;;;;;;2.87;1.30;;;13.60;72.30;;;;;;5072794;28;20667;-87
2021/10/01 09:06:46;;;;;;;5.10;1.57;;;13.60;71.80;;;;;;5073008;28;20175;-88
2021/10/01 09:09:12;;;;;;;5.83;1.60;;;13.70;73.20;;;;;;5071610;28;20252;-88
2021/10/01 09:11:47;;;;;;;8.50;1.50;;;13.80;71.70;;;;;;5072816;28;20225;-88
2021/10/01 09:14:18;;;;;;;4.37;0.90;;;13.80;71.70;;;;;;5072112;28;20221;-88
2021/10/01 09:16:44;;;;;;;7.30;1.70;;;13.90;71.40;;;;;;5072953;28;20176;-88
2021/10/01 09:19:10;;;;;;;3.40;1.20;;;14.00;70.70;;;;;;5071580;28;20192;-88
2021/10/01 09:21:45;;;;;;;4.37;1.30;;;14.20;69.70;;;;;;5073033;28;20175;-87
2021/10/01 09:24:14;;;;;;;2.40;1.40;;;14.20;70.30;;;;;;5075231;28;20182;-88
2021/10/01 09:26:55;;;;;;;6.20;1.50;;;14.30;69.10;;;;;;5076242;28;20172;-88
2021/10/01 09:29:33;;;;;;;2.87;1.20;;;14.40;70.00;;;;;;5074951;28;20207;-88
2021/10/01 09:32:01;;;;;;;4.60;1.23;;;14.40;68.40;;;;;;5075038;28;20174;-88
2021/10/01 09:34:28;;;;;;;5.23;1.40;;;14.50;69.20;;;;;;5074868;28;20605;-88
2021/10/01 09:37:08;;;;;;;2.37;1.43;;;14.50;69.20;;;;;;5074839;28;20225;-88
2021/10/01 09:39:40;;;;;;;2.43;1.20;;;14.60;68.90;;;;;;5072830;28;20195;-88
2021/10/01 09:42:15;;;;;;;5.23;1.30;;;14.80;69.90;;;;;;5074775;28;20613;-88
2021/10/01 09:44:55;;;;;;;6.73;1.73;;;14.80;67.80;;;;;;5074653;28;20262;-89
2021/10/01 09:47:33;;;;;;;4.97;1.80;;;14.80;70.40;;;;;;5075949;28;20189;-88
2021/10/01 09:50:04;;;;;;;3.40;1.50;;;14.80;69.30;;;;;;5074415;28;20245;-88
2021/10/01 09:53:05;;;;;;;4.70;1.40;;;14.90;67.90;;;;;;5074540;28;20177;-88
2021/10/01 09:55:36;;;;;;;6.43;1.70;;;14.80;68.90;;;;;;5074544;28;20169;-88
2021/10/01 09:58:07;;;;;;;5.50;1.47;;;15.00;69.70;;;;;;5074375;28;20201;-88
2021/10/01 10:00:35;;;;;;;5.63;1.90;;;15.00;69.90;;;;;;5075841;28;20156;-87
2021/10/01 10:03:01;;;;;;;3.90;1.33;;;15.10;68.70;;;;;;5075034;28;20198;-89
2021/10/01 10:05:52;;;;;;;3.73;1.60;;;15.20;69.40;;;;;;5074288;28;20262;-88
2021/10/01 10:08:18;;;;;;;9.27;1.90;;;15.40;68.80;;;;;;5074553;28;20702;-88
2021/10/01 10:10:45;;;;;;;4.37;1.33;;;15.40;68.50;;;;;;5074098;28;20195;-88
2021/10/01 10:13:11;;;;;;;8.23;1.42;;;15.70;69.00;;;;;;5075330;28;20174;-88
2021/10/01 10:15:36;;;;;;;4.30;1.40;;;15.70;66.70;;;;;;5074366;28;20541;-87
2021/10/01 10:18:02;;;;;;;4.07;1.42;;;15.70;66.90;;;;;;5075100;28;20187;-88
2021/10/01 10:20:27;;;;;;;5.05;1.50;;;15.90;65.60;;;;;;5074005;28;20183;-88
2021/10/01 10:22:53;;;;;;;4.55;1.50;;;16.10;67.50;;;;;;5073923;28;20175;-88
2021/10/01 10:25:21;;;;;;;8.75;2.10;;;16.20;65.20;;;;;;5073870;28;20176;-88
2021/10/01 10:27:46;;;;;;;1.48;1.05;;;16.20;66.30;;;;;;5073749;28;20191;-88
2021/10/01 10:30:16;;;;;;;6.03;1.98;;;16.20;65.70;;;;;;5073709;28;20195;-88
2021/10/01 10:32:42;;;;;;;4.25;1.50;;;16.30;66.60;;;;;;5073667;28;20171;-88
2021/10/01 10:35:08;;;;;;;5.00;1.77;;;16.50;65.40;;;;;;5073087;28;20186;-88
2021/10/01 10:37:37;;;;;;;1.35;0.88;;;16.40;63.90;;;;;;5073616;28;20199;-88
2021/10/01 10:40:13;;;;;;;3.40;1.42;;;16.40;63.70;;;;;;5074774;28;20670;-88
2021/10/01 10:42:46;;;;;;;4.25;1.45;;;16.50;65.10;;;;;;5074798;28;20171;-88
2021/10/01 10:45:26;;;;;;;6.88;1.25;;;16.70;66.00;;;;;;5074092;28;20237;-88
2021/10/01 10:48:09;;;;;;;7.38;1.30;;;16.70;63.70;;;;;;5073402;28;20229;-88
2021/10/01 10:50:47;;;;;;;8.55;1.45;;;16.70;64.60;;;;;;5074640;28;20211;-88
2021/10/01 10:53:20;;;;;;;4.32;1.55;;;16.80;65.60;;;;;;5073366;28;20171;-88
2021/10/01 10:55:51;;;;;;;4.43;1.27;;;16.70;64.60;;;;;;5073702;28;20266;-88
2021/10/01 10:58:26;;;;;;;5.60;1.48;;;17.00;65.10;;;;;;5073273;28;20211;-88
2021/10/01 11:01:12;;;;;;;0.63;0.63;;;16.90;62.30;;;;;;5073189;28;20182;-88
2021/10/01 11:03:37;;;;;;;4.28;1.52;;;16.80;64.90;;;;;;5074360;28;20172;-88
2021/10/01 11:06:13;;;;;;;5.10;1.30;;;16.60;64.50;;;;;;5073045;28;20176;-88
2021/10/01 11:09:03;;;;;;;5.45;1.38;;;16.60;65.00;;;;;;5072787;28;20569;-88
2021/10/01 11:11:32;;;;;;;6.15;1.42;;;16.90;65.50;;;;;;5073744;28;20224;-88
2021/10/01 11:14:17;;;;;;;5.22;1.58;;;17.10;65.10;;;;;;5073073;28;20354;-88
2021/10/01 11:16:44;;;;;;;4.72;1.15;;;17.10;63.70;;;;;;5073108;28;20179;-89
2021/10/01 11:19:11;;;;;;;2.85;1.30;;;17.20;63.90;;;;;;5072862;28;20286;-88
2021/10/01 11:21:44;;;;;;;6.47;1.50;;;17.20;65.00;;;;;;5074129;28;20178;-88
2021/10/01 11:24:11;;;;;;;4.68;1.30;;;17.40;65.70;;;;;;5072902;28;20171;-88
2021/10/01 11:26:44;;;;;;;5.57;1.98;;;17.40;64.50;;;;;;5072724;28;20551;-88
2021/10/01 11:29:22;;;;;;;3.78;1.40;;;17.50;63.40;;;;;;5072841;28;20238;-88
2021/10/01 11:31:50;;;;;;;5.45;1.52;;;17.00;63.10;;;;;;5072687;28;20179;-88
2021/10/01 11:34:15;;;;;;;6.88;1.40;;;16.90;64.20;;;;;;5073732;28;20167;-88
2021/10/01 11:36:41;;;;;;;6.47;1.30;;;17.00;64.60;;;;;;5072757;28;20278;-88
2021/10/01 11:39:07;;;;;;;4.07;1.30;;;17.20;63.50;;;;;;5072451;28;20286;-88
2021/10/01 11:41:37;;;;;;;5.07;1.77;;;17.20;62.00;;;;;;5073863;28;20258;-88
2021/10/01 11:44:03;;;;;;;2.72;0.93;;;17.30;62.10;;;;;;5072517;28;20174;-88
2021/10/01 11:46:32;;;;;;;4.30;1.23;;;17.20;61.40;;;;;;5071609;28;20270;-88
2021/10/01 11:49:02;;;;;;;5.25;1.55;;;17.30;61.30;;;;;;5072259;28;20263;-88
2021/10/01 11:51:29;;;;;;;5.10;1.30;;;17.50;61.20;;;;;;5072339;28;20246;-88
2021/10/01 11:54:12;;;;;;;6.22;1.77;;;17.20;61.10;;;;;;5073546;28;20167;-88
2021/10/01 11:56:40;;;;;;;2.67;1.10;;;17.10;62.10;;;;;;5073549;28;20167;-87
2021/10/01 11:59:06;;;;;;;2.90;1.27;;;17.10;62.00;;;;;;5073443;28;20230;-88
2021/10/01 12:01:32;;;;;;;4.93;1.27;;;17.00;63.30;;;;;;5072217;28;20570;-88
2021/10/01 12:03:59;;;;;;;8.25;1.10;;;17.10;62.90;;;;;;5073799;28;20176;-90
2021/10/01 12:06:27;;;;;;;3.35;1.20;;;16.90;62.10;;;;;;5072828;28;20639;-90
2021/10/01 12:09:03;;;;;;;3.65;1.20;;;16.80;62.30;;;;;;5072498;28;20576;-90
2021/10/01 12:11:40;;;;;;;7.03;1.40;;;16.90;63.20;;;;;;5072208;28;20171;-90
2021/10/01 12:14:12;;;;;;;4.00;1.50;;;17.10;63.60;;;;;;5072423;28;20167;-90
2021/10/01 12:16:39;;;;;;;5.07;1.27;;;17.50;63.30;;;;;;5073330;28;20246;-90
2021/10/01 12:19:05;;;;;;;6.18;1.58;;;17.60;62.50;;;;;;5072566;28;20206;-90
2021/10/01 12:21:34;;;;;;;6.35;1.40;;;17.70;60.90;;;;;;5073239;28;20693;-90
2021/10/01 12:24:10;;;;;;;4.60;1.40;;;17.80;60.20;;;;;;5071963;28;20237;-90
2021/10/01 12:26:44;;;;;;;2.55;1.00;;;17.80;61.60;;;;;;5073312;28;20156;-90
2021/10/01 12:29:24;;;;;;;9.65;1.63;;;17.60;59.80;;;;;;5071891;28;20207;-90
2021/10/01 12:32:01;;;;;;;4.10;1.55;;;17.70;60.70;;;;;;5072579;28;20158;-90
2021/10/01 12:34:43;;;;;;;8.35;1.33;;;17.70;61.40;;;;;;5072412;28;20162;-90
2021/10/01 12:37:12;;;;;;;4.07;1.45;;;17.50;60.40;;;;;;5073388;28;20156;-90
2021/10/01 12:39:40;;;;;;;5.55;1.20;;;17.50;61.10;;;;;;5071786;28;20290;-91
2021/10/01 12:42:07;;;;;;;2.70;1.23;;;17.70;61.50;;;;;;5073085;28;20172;-90
2021/10/01 12:44:39;;;;;;;4.10;1.35;;;17.70;60.30;;;;;;5071807;28;20266;-90
2021/10/01 12:47:12;;;;;;;9.63;1.58;;;17.60;61.90;;;;;;5072016;28;20628;-90
2021/10/01 12:49:38;;;;;;;4.88;1.42;;;17.50;62.70;;;;;;5071925;28;20238;-90
2021/10/01 12:52:21;;;;;;;7.07;1.42;;;17.40;62.30;;;;;;5071881;28;20203;-90
2021/10/01 12:54:48;;;;;;;3.22;1.35;;;17.30;62.80;;;;;;5071691;28;20171;-90
2021/10/01 12:57:17;;;;;;;7.35;1.65;;;17.30;62.90;;;;;;5072910;28;20176;-90
2021/10/01 12:59:57;;;;;;;4.72;1.30;;;17.20;63.30;;;;;;5075450;28;20260;-90
2021/10/01 13:02:34;;;;;;;3.97;1.30;;;17.20;63.00;;;;;;5075600;28;20270;-90
2021/10/01 13:05:09;;;;;;;6.85;1.63;;;17.30;62.90;;;;;;5075459;28;20189;-90
2021/10/01 13:07:46;;;;;;;8.77;1.60;;;17.40;62.90;;;;;;5076479;28;20190;-90
2021/10/01 13:10:15;;;;;;;4.28;1.50;;;17.50;64.30;;;;;;5075538;28;20666;-90
2021/10/01 13:13:02;;;;;;;4.05;1.55;;;17.50;64.30;;;;;;5075272;28;20171;-90
2021/10/01 13:15:55;;;;;;;5.10;1.70;;;17.60;65.50;;;;;;5076532;28;20170;-90
2021/10/01 13:18:27;;;;;;;4.10;1.38;;;17.60;65.60;;;;;;5076356;28;20333;-90
2021/10/01 13:21:01;;;;;;;8.43;1.33;;;17.60;64.30;;;;;;5075135;28;20168;-90
2021/10/01 13:23:53;;;;;;;6.88;1.70;;;17.70;63.40;;;;;;5075083;28;20208;-90
2021/10/01 13:26:23;;;;;;;6.47;1.50;;;17.80;63.30;;;;;;5076550;28;20164;-90
2021/10/01 13:28:50;;;;;;;3.88;1.10;;;18.00;62.40;;;;;;5076095;28;20672;-90
2021/10/01 13:31:18;;;;;;;5.55;2.28;;;18.10;61.90;;;;;;5075566;28;20177;-90
2021/10/01 13:33:44;;;;;;;5.72;1.48;;;18.10;61.40;;;;;;5074906;28;20171;-90
2021/10/01 13:36:11;;;;;;;8.27;1.40;;;18.00;62.10;;;;;;5074894;28;20175;-90
2021/10/01 13:38:39;;;;;;;6.85;1.67;;;17.80;61.30;;;;;;5076329;28;20730;-90
2021/10/01 13:41:07;;;;;;;2.67;1.10;;;17.60;62.10;;;;;;5074728;28;20175;-90
2021/10/01 13:43:33;;;;;;;1.92;1.10;;;17.60;62.80;;;;;;5075942;28;20171;-90
2021/10/01 13:46:00;;;;;;;4.97;1.40;;;17.70;61.80;;;;;;5074680;28;20651;-90
2021/10/01 13:48:27;;;;;;;4.68;1.45;;;17.60;61.50;;;;;;5074593;28;20205;-89
2021/10/01 13:50:54;;;;;;;1.90;0.95;;;17.50;58.90;;;;;;5075999;28;20651;-90
2021/10/01 13:53:20;;;;;;;3.13;1.33;;;17.40;59.90;;;;;;5074615;28;20226;-90
2021/10/01 13:55:47;;;;;;;7.13;1.30;;;17.50;60.00;;;;;;5074547;28;20217;-90
2021/10/01 13:58:13;;;;;;;2.38;0.98;;;17.70;59.20;;;;;;5074509;28;20211;-90
2021/10/01 14:00:39;;;;;;;5.63;1.90;;;17.70;58.60;;;;;;5074491;28;20569;-90
2021/10/01 14:03:06;;;;;;;3.15;1.55;;;17.60;60.30;;;;;;5074319;28;20658;-90
2021/10/01 14:05:31;;;;;;;10.82;1.60;;;17.50;60.00;;;;;;5074733;28;20207;-90
2021/10/01 14:07:57;;;;;;;7.43;1.50;;;17.50;60.50;;;;;;5074701;28;20227;-90
2021/10/01 14:10:27;;;;;;;6.32;1.50;;;17.50;61.30;;;;;;5073750;28;20698;-90
2021/10/01 14:12:53;;;;;;;4.75;1.33;;;17.30;61.70;;;;;;5074343;28;20206;-90
2021/10/01 14:15:21;;;;;;;4.97;1.30;;;17.20;61.30;;;;;;5075380;28;20171;-90
2021/10/01 14:17:48;;;;;;;11.85;1.85;;;17.10;61.90;;;;;;5074011;28;20245;-90
2021/10/01 14:20:17;;;;;;;4.53;1.48;;;17.00;63.00;;;;;;5074070;28;20182;-90
2021/10/01 14:22:43;;;;;;;6.35;1.80;;;17.00;63.30;;;;;;5075223;28;20168;-90
2021/10/01 14:25:11;;;;;;;6.18;1.38;;;16.90;64.70;;;;;;5074023;28;20210;-90
2021/10/01 14:27:37;;;;;;;6.60;1.30;;;16.90;64.60;;;;;;5074451;28;20179;-90